sensor_id;sensor_type;location;lat;lon;timestamp;temperature;humidity
8095;DHT22;4090;49.270;8.696;2022-09-09T00:02:42;19.60;99.90
8095;DHT22;4090;49.270;8.696;2022-09-09T00:05:31;19.60;99.90
8095;DHT22;4090;49.270;8.696;2022-09-09T00:08:19;19.60;99.90
8095;DHT22;4090;49.270;8.696;2022-09-09T00:11:03;19.60;99.90
8095;DHT22;4090;49.270;8.696;2022-09-09T00:13:50;19.60;99.90
8095;DHT22;4090;49.270;8.696;2022-09-09T00:16:36;19.60;99.90
8095;DHT22;4090;49.270;8.696;2022-09-09T00:19:30;19.60;99.90
8095;DHT22;4090;49.270;8.696;2022-09-09T00:22:16;19.60;99.90
8095;DHT22;4090;49.270;8.696;2022-09-09T00:25:05;19.60;99.90
8095;DHT22;4090;49.270;8.696;2022-09-09T00:27:52;19.60;99.90
8095;DHT22;4090;49.270;8.696;2022-09-09T00:30:35;19.60;99.90
8095;DHT22;4090;49.270;8.696;2022-09-09T00:33:20;19.60;99.90
8095;DHT22;4090;49.270;8.696;2022-09-09T00:36:12;19.60;99.90
8095;DHT22;4090;49.270;8.696;2022-09-09T00:38:58;19.50;99.90
8095;DHT22;4090;49.270;8.696;2022-09-09T00:41:51;19.50;99.90
8095;DHT22;4090;49.270;8.696;2022-09-09T00:44:38;19.50;99.90
8095;DHT22;4090;49.270;8.696;2022-09-09T00:50:42;19.50;99.90
8095;DHT22;4090;49.270;8.696;2022-09-09T00:53:35;19.60;99.90
8095;DHT22;4090;49.270;8.696;2022-09-09T00:56:21;19.60;99.90
8095;DHT22;4090;49.270;8.696;2022-09-09T00:59:16;19.60;99.90
8095;DHT22;4090;49.270;8.696;2022-09-09T01:02:01;19.60;99.90
8095;DHT22;4090;49.270;8.696;2022-09-09T01:04:43;19.60;99.90
8095;DHT22;4090;49.270;8.696;2022-09-09T01:07:25;19.60;99.90
8095;DHT22;4090;49.270;8.696;2022-09-09T01:10:13;19.60;99.90
8095;DHT22;4090;49.270;8.696;2022-09-09T01:13:02;19.60;99.90
8095;DHT22;4090;49.270;8.696;2022-09-09T01:15:46;19.60;99.90
8095;DHT22;4090;49.270;8.696;2022-09-09T01:18:33;19.60;99.90
8095;DHT22;4090;49.270;8.696;2022-09-09T01:21:22;19.50;99.90
8095;DHT22;4090;49.270;8.696;2022-09-09T01:24:19;19.50;99.90
8095;DHT22;4090;49.270;8.696;2022-09-09T01:27:17;19.50;99.90
8095;DHT22;4090;49.270;8.696;2022-09-09T01:29:59;19.50;99.90
8095;DHT22;4090;49.270;8.696;2022-09-09T01:32:44;19.50;99.90
8095;DHT22;4090;49.270;8.696;2022-09-09T01:35:34;19.50;99.90
8095;DHT22;4090;49.270;8.696;2022-09-09T01:38:19;19.60;99.90
8095;DHT22;4090;49.270;8.696;2022-09-09T01:41:03;19.60;99.90
8095;DHT22;4090;49.270;8.696;2022-09-09T01:43:57;19.60;99.90
8095;DHT22;4090;49.270;8.696;2022-09-09T01:46:40;19.60;99.90
8095;DHT22;4090;49.270;8.696;2022-09-09T01:49:28;19.60;99.90
8095;DHT22;4090;49.270;8.696;2022-09-09T01:52:11;19.60;99.90
8095;DHT22;4090;49.270;8.696;2022-09-09T01:54:53;19.60;99.90
8095;DHT22;4090;49.270;8.696;2022-09-09T01:57:42;19.60;99.90
8095;DHT22;4090;49.270;8.696;2022-09-09T02:00:33;19.60;99.90
8095;DHT22;4090;49.270;8.696;2022-09-09T02:03:24;19.50;99.90
8095;DHT22;4090;49.270;8.696;2022-09-09T02:06:20;19.50;99.90
8095;DHT22;4090;49.270;8.696;2022-09-09T02:09:10;19.50;99.90
8095;DHT22;4090;49.270;8.696;2022-09-09T02:11:57;19.40;99.90
8095;DHT22;4090;49.270;8.696;2022-09-09T02:14:55;19.40;99.90
8095;DHT22;4090;49.270;8.696;2022-09-09T02:17:41;19.30;99.90
8095;DHT22;4090;49.270;8.696;2022-09-09T02:20:29;19.30;99.90
8095;DHT22;4090;49.270;8.696;2022-09-09T02:23:14;19.30;99.90
8095;DHT22;4090;49.270;8.696;2022-09-09T02:25:58;19.30;99.90
8095;DHT22;4090;49.270;8.696;2022-09-09T02:28:41;19.30;99.90
8095;DHT22;4090;49.270;8.696;2022-09-09T02:31:24;19.30;99.90
8095;DHT22;4090;49.270;8.696;2022-09-09T02:34:17;19.20;99.90
8095;DHT22;4090;49.270;8.696;2022-09-09T02:37:01;19.20;99.90
8095;DHT22;4090;49.270;8.696;2022-09-09T02:39:44;19.20;99.90
8095;DHT22;4090;49.270;8.696;2022-09-09T02:42:30;19.20;99.90
8095;DHT22;4090;49.270;8.696;2022-09-09T02:45:16;19.20;99.90
8095;DHT22;4090;49.270;8.696;2022-09-09T02:48:09;19.10;99.90
8095;DHT22;4090;49.270;8.696;2022-09-09T02:50:59;19.20;99.90
8095;DHT22;4090;49.270;8.696;2022-09-09T02:53:52;19.10;99.90
8095;DHT22;4090;49.270;8.696;2022-09-09T02:56:43;19.10;99.90
8095;DHT22;4090;49.270;8.696;2022-09-09T02:59:28;19.20;99.90
8095;DHT22;4090;49.270;8.696;2022-09-09T03:02:11;19.20;99.90
8095;DHT22;4090;49.270;8.696;2022-09-09T03:04:54;19.20;99.90
8095;DHT22;4090;49.270;8.696;2022-09-09T03:07:37;19.20;99.90
8095;DHT22;4090;49.270;8.696;2022-09-09T03:10:21;19.30;99.90
8095;DHT22;4090;49.270;8.696;2022-09-09T03:13:04;19.30;99.90
8095;DHT22;4090;49.270;8.696;2022-09-09T03:15:50;19.30;99.90
8095;DHT22;4090;49.270;8.696;2022-09-09T03:18:34;19.30;99.90
8095;DHT22;4090;49.270;8.696;2022-09-09T03:21:16;19.30;99.90
8095;DHT22;4090;49.270;8.696;2022-09-09T03:24:01;19.30;99.90
8095;DHT22;4090;49.270;8.696;2022-09-09T03:26:43;19.30;99.90
8095;DHT22;4090;49.270;8.696;2022-09-09T03:29:28;19.20;99.90
8095;DHT22;4090;49.270;8.696;2022-09-09T03:32:12;19.20;99.90
8095;DHT22;4090;49.270;8.696;2022-09-09T03:34:58;19.20;99.90
8095;DHT22;4090;49.270;8.696;2022-09-09T03:37:40;19.20;99.90
8095;DHT22;4090;49.270;8.696;2022-09-09T03:40:24;19.10;99.90
8095;DHT22;4090;49.270;8.696;2022-09-09T03:43:06;19.10;99.90
8095;DHT22;4090;49.270;8.696;2022-09-09T03:45:48;19.10;99.90
8095;DHT22;4090;49.270;8.696;2022-09-09T03:48:30;19.10;99.90
8095;DHT22;4090;49.270;8.696;2022-09-09T03:51:13;19.10;99.90
8095;DHT22;4090;49.270;8.696;2022-09-09T03:53:56;19.10;99.90
8095;DHT22;4090;49.270;8.696;2022-09-09T03:56:41;19.10;99.90
8095;DHT22;4090;49.270;8.696;2022-09-09T03:59:25;19.10;99.90
8095;DHT22;4090;49.270;8.696;2022-09-09T04:02:07;19.10;99.90
8095;DHT22;4090;49.270;8.696;2022-09-09T04:04:49;19.10;99.90
8095;DHT22;4090;49.270;8.696;2022-09-09T04:07:31;19.10;99.90
8095;DHT22;4090;49.270;8.696;2022-09-09T04:10:13;19.20;99.90
8095;DHT22;4090;49.270;8.696;2022-09-09T04:12:58;19.10;99.90
8095;DHT22;4090;49.270;8.696;2022-09-09T04:15:40;19.20;99.90
8095;DHT22;4090;49.270;8.696;2022-09-09T04:18:23;19.20;99.90
8095;DHT22;4090;49.270;8.696;2022-09-09T04:21:05;19.20;99.90
8095;DHT22;4090;49.270;8.696;2022-09-09T04:23:49;19.20;99.90
8095;DHT22;4090;49.270;8.696;2022-09-09T04:26:32;19.20;99.90
8095;DHT22;4090;49.270;8.696;2022-09-09T04:29:16;19.20;99.90
8095;DHT22;4090;49.270;8.696;2022-09-09T04:31:58;19.20;99.90
8095;DHT22;4090;49.270;8.696;2022-09-09T04:34:40;19.20;99.90
8095;DHT22;4090;49.270;8.696;2022-09-09T04:37:23;19.20;99.90
8095;DHT22;4090;49.270;8.696;2022-09-09T04:40:07;19.20;99.90
8095;DHT22;4090;49.270;8.696;2022-09-09T04:42:51;19.20;99.90
8095;DHT22;4090;49.270;8.696;2022-09-09T04:45:34;19.20;99.90
8095;DHT22;4090;49.270;8.696;2022-09-09T04:48:17;19.20;99.90
8095;DHT22;4090;49.270;8.696;2022-09-09T04:51:01;19.20;99.90
8095;DHT22;4090;49.270;8.696;2022-09-09T04:53:45;19.20;99.90
8095;DHT22;4090;49.270;8.696;2022-09-09T04:56:31;19.10;99.90
8095;DHT22;4090;49.270;8.696;2022-09-09T04:59:14;19.10;99.90
8095;DHT22;4090;49.270;8.696;2022-09-09T05:02:01;19.10;99.90
8095;DHT22;4090;49.270;8.696;2022-09-09T05:04:45;19.10;99.90
8095;DHT22;4090;49.270;8.696;2022-09-09T05:07:27;19.10;99.90
8095;DHT22;4090;49.270;8.696;2022-09-09T05:10:09;19.10;99.90
8095;DHT22;4090;49.270;8.696;2022-09-09T05:12:54;19.10;99.90
8095;DHT22;4090;49.270;8.696;2022-09-09T05:15:40;19.10;99.90
8095;DHT22;4090;49.270;8.696;2022-09-09T05:18:25;19.10;99.90
8095;DHT22;4090;49.270;8.696;2022-09-09T05:21:07;19.10;99.90
8095;DHT22;4090;49.270;8.696;2022-09-09T05:23:49;19.10;99.90
8095;DHT22;4090;49.270;8.696;2022-09-09T05:26:33;19.00;99.90
8095;DHT22;4090;49.270;8.696;2022-09-09T05:29:16;19.00;99.90
8095;DHT22;4090;49.270;8.696;2022-09-09T05:32:00;19.00;99.90
8095;DHT22;4090;49.270;8.696;2022-09-09T05:34:43;19.00;99.90
8095;DHT22;4090;49.270;8.696;2022-09-09T05:37:26;19.00;99.90
8095;DHT22;4090;49.270;8.696;2022-09-09T05:40:09;19.00;99.90
8095;DHT22;4090;49.270;8.696;2022-09-09T05:42:53;19.00;99.90
8095;DHT22;4090;49.270;8.696;2022-09-09T05:45:35;19.00;99.90
8095;DHT22;4090;49.270;8.696;2022-09-09T05:48:17;19.00;99.90
8095;DHT22;4090;49.270;8.696;2022-09-09T05:51:02;19.10;99.90
8095;DHT22;4090;49.270;8.696;2022-09-09T05:53:45;19.10;99.90
8095;DHT22;4090;49.270;8.696;2022-09-09T05:56:28;19.10;99.90
8095;DHT22;4090;49.270;8.696;2022-09-09T05:59:12;19.10;99.90
8095;DHT22;4090;49.270;8.696;2022-09-09T06:01:55;19.10;99.90
8095;DHT22;4090;49.270;8.696;2022-09-09T06:04:46;19.10;99.90
8095;DHT22;4090;49.270;8.696;2022-09-09T06:07:29;19.10;99.90
8095;DHT22;4090;49.270;8.696;2022-09-09T06:10:11;19.10;99.90
8095;DHT22;4090;49.270;8.696;2022-09-09T06:12:54;19.10;99.90
8095;DHT22;4090;49.270;8.696;2022-09-09T06:15:36;19.10;99.90
8095;DHT22;4090;49.270;8.696;2022-09-09T06:18:19;19.10;99.90
8095;DHT22;4090;49.270;8.696;2022-09-09T06:21:03;19.10;99.90
8095;DHT22;4090;49.270;8.696;2022-09-09T06:23:47;19.10;99.90
8095;DHT22;4090;49.270;8.696;2022-09-09T06:26:30;19.10;99.90
8095;DHT22;4090;49.270;8.696;2022-09-09T06:29:14;19.10;99.90
8095;DHT22;4090;49.270;8.696;2022-09-09T06:31:57;19.10;99.90
8095;DHT22;4090;49.270;8.696;2022-09-09T06:34:41;19.10;99.90
8095;DHT22;4090;49.270;8.696;2022-09-09T06:37:23;19.10;99.90
8095;DHT22;4090;49.270;8.696;2022-09-09T06:40:07;19.20;99.90
8095;DHT22;4090;49.270;8.696;2022-09-09T06:42:50;19.20;99.90
8095;DHT22;4090;49.270;8.696;2022-09-09T06:45:38;19.20;99.90
8095;DHT22;4090;49.270;8.696;2022-09-09T06:48:20;19.20;99.90
8095;DHT22;4090;49.270;8.696;2022-09-09T06:51:03;19.20;99.90
8095;DHT22;4090;49.270;8.696;2022-09-09T06:53:46;19.20;99.90
8095;DHT22;4090;49.270;8.696;2022-09-09T06:56:32;19.20;99.90
8095;DHT22;4090;49.270;8.696;2022-09-09T06:59:16;19.30;99.90
8095;DHT22;4090;49.270;8.696;2022-09-09T07:01:59;19.20;99.90
8095;DHT22;4090;49.270;8.696;2022-09-09T07:04:42;19.30;99.90
8095;DHT22;4090;49.270;8.696;2022-09-09T07:07:25;19.30;99.90
8095;DHT22;4090;49.270;8.696;2022-09-09T07:10:08;19.30;99.90
8095;DHT22;4090;49.270;8.696;2022-09-09T07:12:53;19.30;99.90
8095;DHT22;4090;49.270;8.696;2022-09-09T07:15:38;19.40;99.90
8095;DHT22;4090;49.270;8.696;2022-09-09T07:18:20;19.40;99.90
8095;DHT22;4090;49.270;8.696;2022-09-09T07:21:02;19.50;99.90
8095;DHT22;4090;49.270;8.696;2022-09-09T07:23:45;19.50;99.90
8095;DHT22;4090;49.270;8.696;2022-09-09T07:26:29;19.50;99.90
8095;DHT22;4090;49.270;8.696;2022-09-09T07:29:14;19.50;99.90
8095;DHT22;4090;49.270;8.696;2022-09-09T07:31:56;19.50;99.90
8095;DHT22;4090;49.270;8.696;2022-09-09T07:34:44;19.60;99.90
8095;DHT22;4090;49.270;8.696;2022-09-09T07:37:27;19.60;99.90
8095;DHT22;4090;49.270;8.696;2022-09-09T07:40:08;19.70;99.90
8095;DHT22;4090;49.270;8.696;2022-09-09T07:42:51;19.70;99.90
8095;DHT22;4090;49.270;8.696;2022-09-09T07:45:34;19.70;99.90
8095;DHT22;4090;49.270;8.696;2022-09-09T07:48:16;19.80;99.90
8095;DHT22;4090;49.270;8.696;2022-09-09T07:51:07;19.80;99.90
8095;DHT22;4090;49.270;8.696;2022-09-09T07:53:52;19.80;99.90
8095;DHT22;4090;49.270;8.696;2022-09-09T07:56:34;19.80;99.90
8095;DHT22;4090;49.270;8.696;2022-09-09T07:59:18;19.90;99.90
8095;DHT22;4090;49.270;8.696;2022-09-09T08:02:04;19.90;99.90
8095;DHT22;4090;49.270;8.696;2022-09-09T08:04:49;20.00;99.90
8095;DHT22;4090;49.270;8.696;2022-09-09T08:07:33;20.10;99.90
8095;DHT22;4090;49.270;8.696;2022-09-09T08:10:15;20.10;99.90
8095;DHT22;4090;49.270;8.696;2022-09-09T08:12:58;20.10;99.90
8095;DHT22;4090;49.270;8.696;2022-09-09T08:15:40;20.10;99.90
8095;DHT22;4090;49.270;8.696;2022-09-09T08:18:26;20.10;99.90
8095;DHT22;4090;49.270;8.696;2022-09-09T08:21:11;20.10;99.90
8095;DHT22;4090;49.270;8.696;2022-09-09T08:23:54;20.10;99.90
8095;DHT22;4090;49.270;8.696;2022-09-09T08:26:38;20.10;99.90
8095;DHT22;4090;49.270;8.696;2022-09-09T08:29:20;20.20;99.90
8095;DHT22;4090;49.270;8.696;2022-09-09T08:32:02;20.20;99.90
8095;DHT22;4090;49.270;8.696;2022-09-09T08:34:47;20.30;99.90
8095;DHT22;4090;49.270;8.696;2022-09-09T08:37:35;20.30;99.90
8095;DHT22;4090;49.270;8.696;2022-09-09T08:40:22;20.40;99.90
8095;DHT22;4090;49.270;8.696;2022-09-09T08:43:09;20.30;99.90
8095;DHT22;4090;49.270;8.696;2022-09-09T08:45:59;20.30;99.90
8095;DHT22;4090;49.270;8.696;2022-09-09T08:48:53;20.30;99.90
8095;DHT22;4090;49.270;8.696;2022-09-09T08:51:40;20.20;99.90
8095;DHT22;4090;49.270;8.696;2022-09-09T08:54:23;20.10;99.90
8095;DHT22;4090;49.270;8.696;2022-09-09T08:57:13;20.10;99.90
8095;DHT22;4090;49.270;8.696;2022-09-09T08:59:56;20.00;99.90
8095;DHT22;4090;49.270;8.696;2022-09-09T09:02:46;19.90;99.90
8095;DHT22;4090;49.270;8.696;2022-09-09T09:05:35;19.90;99.90
8095;DHT22;4090;49.270;8.696;2022-09-09T09:08:26;19.90;99.90
8095;DHT22;4090;49.270;8.696;2022-09-09T09:11:10;19.80;99.90
8095;DHT22;4090;49.270;8.696;2022-09-09T09:13:55;19.80;99.90
8095;DHT22;4090;49.270;8.696;2022-09-09T09:16:40;19.80;99.90
8095;DHT22;4090;49.270;8.696;2022-09-09T09:19:26;19.70;99.90
8095;DHT22;4090;49.270;8.696;2022-09-09T09:22:16;19.70;99.90
8095;DHT22;4090;49.270;8.696;2022-09-09T09:25:05;19.70;99.90
8095;DHT22;4090;49.270;8.696;2022-09-09T09:27:58;19.70;99.90
8095;DHT22;4090;49.270;8.696;2022-09-09T09:30:48;19.70;99.90
8095;DHT22;4090;49.270;8.696;2022-09-09T09:33:38;19.80;99.90
8095;DHT22;4090;49.270;8.696;2022-09-09T09:36:25;19.80;99.90
8095;DHT22;4090;49.270;8.696;2022-09-09T09:39:23;19.80;99.90
8095;DHT22;4090;49.270;8.696;2022-09-09T09:42:09;19.80;99.90
8095;DHT22;4090;49.270;8.696;2022-09-09T09:44:55;19.80;99.90
8095;DHT22;4090;49.270;8.696;2022-09-09T09:47:37;19.90;99.90
8095;DHT22;4090;49.270;8.696;2022-09-09T09:50:26;19.90;99.90
8095;DHT22;4090;49.270;8.696;2022-09-09T09:53:20;20.00;99.90
8095;DHT22;4090;49.270;8.696;2022-09-09T09:56:05;20.00;99.90
8095;DHT22;4090;49.270;8.696;2022-09-09T09:58:51;20.10;99.90
8095;DHT22;4090;49.270;8.696;2022-09-09T10:01:39;20.10;99.90
8095;DHT22;4090;49.270;8.696;2022-09-09T10:04:25;20.10;99.90
8095;DHT22;4090;49.270;8.696;2022-09-09T10:07:13;20.20;99.90
8095;DHT22;4090;49.270;8.696;2022-09-09T10:09:58;20.20;99.90
8095;DHT22;4090;49.270;8.696;2022-09-09T10:12:51;20.30;99.90
8095;DHT22;4090;49.270;8.696;2022-09-09T10:15:43;20.40;99.90
8095;DHT22;4090;49.270;8.696;2022-09-09T10:18:47;20.50;99.90
8095;DHT22;4090;49.270;8.696;2022-09-09T10:21:57;20.60;99.90
8095;DHT22;4090;49.270;8.696;2022-09-09T10:27:58;20.60;99.90
8095;DHT22;4090;49.270;8.696;2022-09-09T10:30:52;20.60;99.90
8095;DHT22;4090;49.270;8.696;2022-09-09T10:33:44;20.60;99.90
8095;DHT22;4090;49.270;8.696;2022-09-09T10:36:29;20.50;99.90
8095;DHT22;4090;49.270;8.696;2022-09-09T10:39:19;20.50;99.90
8095;DHT22;4090;49.270;8.696;2022-09-09T10:42:09;20.50;99.90
8095;DHT22;4090;49.270;8.696;2022-09-09T10:45:06;20.60;99.90
8095;DHT22;4090;49.270;8.696;2022-09-09T10:48:17;20.70;99.90
8095;DHT22;4090;49.270;8.696;2022-09-09T10:51:15;20.90;99.90
8095;DHT22;4090;49.270;8.696;2022-09-09T10:54:17;21.10;99.90
8095;DHT22;4090;49.270;8.696;2022-09-09T10:57:08;21.40;99.90
8095;DHT22;4090;49.270;8.696;2022-09-09T10:59:53;21.50;99.90
8095;DHT22;4090;49.270;8.696;2022-09-09T11:02:37;21.60;99.90
8095;DHT22;4090;49.270;8.696;2022-09-09T11:05:29;21.60;99.90
8095;DHT22;4090;49.270;8.696;2022-09-09T11:08:14;21.70;99.90
8095;DHT22;4090;49.270;8.696;2022-09-09T11:11:02;21.90;99.90
8095;DHT22;4090;49.270;8.696;2022-09-09T11:13:47;22.10;99.90
8095;DHT22;4090;49.270;8.696;2022-09-09T11:16:35;22.20;99.90
8095;DHT22;4090;49.270;8.696;2022-09-09T11:19:26;22.40;99.90
8095;DHT22;4090;49.270;8.696;2022-09-09T11:22:18;22.50;99.90
8095;DHT22;4090;49.270;8.696;2022-09-09T11:25:05;22.60;99.90
8095;DHT22;4090;49.270;8.696;2022-09-09T11:28:02;22.60;99.90
8095;DHT22;4090;49.270;8.696;2022-09-09T11:30:55;22.70;99.90
8095;DHT22;4090;49.270;8.696;2022-09-09T11:34:01;22.80;99.90
8095;DHT22;4090;49.270;8.696;2022-09-09T11:36:56;22.90;99.90
8095;DHT22;4090;49.270;8.696;2022-09-09T11:40:16;23.00;99.90
8095;DHT22;4090;49.270;8.696;2022-09-09T11:43:05;23.00;99.90
8095;DHT22;4090;49.270;8.696;2022-09-09T11:45:51;23.10;99.90
8095;DHT22;4090;49.270;8.696;2022-09-09T11:48:37;23.10;99.90
8095;DHT22;4090;49.270;8.696;2022-09-09T11:51:26;23.10;99.90
8095;DHT22;4090;49.270;8.696;2022-09-09T11:54:28;23.10;99.90
8095;DHT22;4090;49.270;8.696;2022-09-09T11:57:25;23.20;99.90
8095;DHT22;4090;49.270;8.696;2022-09-09T12:03:31;23.60;99.90
8095;DHT22;4090;49.270;8.696;2022-09-09T12:06:19;23.70;99.90
8095;DHT22;4090;49.270;8.696;2022-09-09T12:09:07;23.70;99.90
8095;DHT22;4090;49.270;8.696;2022-09-09T12:11:51;23.70;99.90
8095;DHT22;4090;49.270;8.696;2022-09-09T12:14:43;23.60;99.90
8095;DHT22;4090;49.270;8.696;2022-09-09T12:17:41;23.60;99.90
8095;DHT22;4090;49.270;8.696;2022-09-09T12:20:30;23.60;99.90
8095;DHT22;4090;49.270;8.696;2022-09-09T12:23:27;23.50;99.90
8095;DHT22;4090;49.270;8.696;2022-09-09T12:26:27;23.50;99.90
8095;DHT22;4090;49.270;8.696;2022-09-09T12:29:18;23.60;99.90
8095;DHT22;4090;49.270;8.696;2022-09-09T12:32:10;23.60;99.90
8095;DHT22;4090;49.270;8.696;2022-09-09T12:34:54;23.60;99.90
8095;DHT22;4090;49.270;8.696;2022-09-09T12:37:39;23.50;99.90
8095;DHT22;4090;49.270;8.696;2022-09-09T12:40:23;23.30;99.90
8095;DHT22;4090;49.270;8.696;2022-09-09T12:43:17;23.20;99.90
8095;DHT22;4090;49.270;8.696;2022-09-09T12:46:01;23.10;99.90
8095;DHT22;4090;49.270;8.696;2022-09-09T12:48:44;22.90;99.90
8095;DHT22;4090;49.270;8.696;2022-09-09T12:51:29;22.80;99.90
8095;DHT22;4090;49.270;8.696;2022-09-09T12:54:13;22.80;99.90
8095;DHT22;4090;49.270;8.696;2022-09-09T12:56:55;22.80;99.90
8095;DHT22;4090;49.270;8.696;2022-09-09T12:59:38;22.70;99.90
8095;DHT22;4090;49.270;8.696;2022-09-09T13:02:22;22.70;99.90
8095;DHT22;4090;49.270;8.696;2022-09-09T13:05:15;22.60;99.90
8095;DHT22;4090;49.270;8.696;2022-09-09T13:08:01;22.60;99.90
8095;DHT22;4090;49.270;8.696;2022-09-09T13:10:47;22.50;99.90
8095;DHT22;4090;49.270;8.696;2022-09-09T13:13:39;22.40;99.90
8095;DHT22;4090;49.270;8.696;2022-09-09T13:16:25;22.30;99.90
8095;DHT22;4090;49.270;8.696;2022-09-09T13:19:08;22.20;99.90
8095;DHT22;4090;49.270;8.696;2022-09-09T13:21:52;22.10;99.90
8095;DHT22;4090;49.270;8.696;2022-09-09T13:24:34;22.10;99.90
8095;DHT22;4090;49.270;8.696;2022-09-09T13:27:26;22.00;99.90
8095;DHT22;4090;49.270;8.696;2022-09-09T13:30:21;21.90;99.90
8095;DHT22;4090;49.270;8.696;2022-09-09T13:33:21;21.60;99.90
8095;DHT22;4090;49.270;8.696;2022-09-09T13:36:06;21.40;99.90
8095;DHT22;4090;49.270;8.696;2022-09-09T13:38:56;21.20;99.90
8095;DHT22;4090;49.270;8.696;2022-09-09T13:41:43;21.10;99.90
8095;DHT22;4090;49.270;8.696;2022-09-09T13:44:27;21.00;99.90
8095;DHT22;4090;49.270;8.696;2022-09-09T13:47:18;20.90;99.90
8095;DHT22;4090;49.270;8.696;2022-09-09T13:50:18;20.80;99.90
8095;DHT22;4090;49.270;8.696;2022-09-09T13:53:00;20.80;99.90
8095;DHT22;4090;49.270;8.696;2022-09-09T13:55:44;20.80;99.90
8095;DHT22;4090;49.270;8.696;2022-09-09T13:58:26;20.80;99.90
8095;DHT22;4090;49.270;8.696;2022-09-09T14:01:08;20.80;99.90
8095;DHT22;4090;49.270;8.696;2022-09-09T14:03:52;20.70;99.90
8095;DHT22;4090;49.270;8.696;2022-09-09T14:06:34;20.70;99.90
8095;DHT22;4090;49.270;8.696;2022-09-09T14:09:19;20.80;99.90
8095;DHT22;4090;49.270;8.696;2022-09-09T14:12:02;20.90;99.90
8095;DHT22;4090;49.270;8.696;2022-09-09T14:14:45;21.00;99.90
8095;DHT22;4090;49.270;8.696;2022-09-09T14:17:27;21.00;99.90
8095;DHT22;4090;49.270;8.696;2022-09-09T14:20:11;21.20;99.90
8095;DHT22;4090;49.270;8.696;2022-09-09T14:22:55;21.30;99.90
8095;DHT22;4090;49.270;8.696;2022-09-09T14:25:40;21.40;99.90
8095;DHT22;4090;49.270;8.696;2022-09-09T14:28:24;21.50;99.90
8095;DHT22;4090;49.270;8.696;2022-09-09T14:31:06;21.60;99.90
8095;DHT22;4090;49.270;8.696;2022-09-09T14:33:48;21.70;99.90
8095;DHT22;4090;49.270;8.696;2022-09-09T14:36:31;21.80;99.90
8095;DHT22;4090;49.270;8.696;2022-09-09T14:39:13;21.90;99.90
8095;DHT22;4090;49.270;8.696;2022-09-09T14:41:55;22.00;99.90
8095;DHT22;4090;49.270;8.696;2022-09-09T14:44:38;22.20;99.90
8095;DHT22;4090;49.270;8.696;2022-09-09T14:47:21;22.30;99.90
8095;DHT22;4090;49.270;8.696;2022-09-09T14:50:03;22.40;99.90
8095;DHT22;4090;49.270;8.696;2022-09-09T14:52:45;22.60;99.90
8095;DHT22;4090;49.270;8.696;2022-09-09T14:55:28;22.70;99.90
8095;DHT22;4090;49.270;8.696;2022-09-09T14:58:10;22.80;99.90
8095;DHT22;4090;49.270;8.696;2022-09-09T15:00:53;22.80;99.90
8095;DHT22;4090;49.270;8.696;2022-09-09T15:03:35;22.90;99.90
8095;DHT22;4090;49.270;8.696;2022-09-09T15:06:17;23.00;99.90
8095;DHT22;4090;49.270;8.696;2022-09-09T15:09:00;22.90;99.90
8095;DHT22;4090;49.270;8.696;2022-09-09T15:11:42;22.90;99.90
8095;DHT22;4090;49.270;8.696;2022-09-09T15:14:24;22.90;99.90
8095;DHT22;4090;49.270;8.696;2022-09-09T15:17:08;22.80;99.90
8095;DHT22;4090;49.270;8.696;2022-09-09T15:19:50;22.80;99.90
8095;DHT22;4090;49.270;8.696;2022-09-09T15:22:32;22.70;99.90
8095;DHT22;4090;49.270;8.696;2022-09-09T15:25:16;22.70;99.90
8095;DHT22;4090;49.270;8.696;2022-09-09T15:27:59;22.70;99.90
8095;DHT22;4090;49.270;8.696;2022-09-09T15:30:41;22.70;99.90
8095;DHT22;4090;49.270;8.696;2022-09-09T15:33:27;22.60;99.90
8095;DHT22;4090;49.270;8.696;2022-09-09T15:36:14;22.60;99.90
8095;DHT22;4090;49.270;8.696;2022-09-09T15:38:56;22.50;99.90
8095;DHT22;4090;49.270;8.696;2022-09-09T15:41:38;22.40;99.90
8095;DHT22;4090;49.270;8.696;2022-09-09T15:44:20;22.20;99.90
8095;DHT22;4090;49.270;8.696;2022-09-09T15:47:05;22.10;99.90
8095;DHT22;4090;49.270;8.696;2022-09-09T15:49:49;22.00;99.90
8095;DHT22;4090;49.270;8.696;2022-09-09T15:52:31;21.90;99.90
8095;DHT22;4090;49.270;8.696;2022-09-09T15:55:14;21.90;99.90
8095;DHT22;4090;49.270;8.696;2022-09-09T15:57:55;21.90;99.90
8095;DHT22;4090;49.270;8.696;2022-09-09T16:00:38;21.90;99.90
8095;DHT22;4090;49.270;8.696;2022-09-09T16:03:20;21.90;99.90
8095;DHT22;4090;49.270;8.696;2022-09-09T16:06:03;21.80;99.90
8095;DHT22;4090;49.270;8.696;2022-09-09T16:08:46;21.90;99.90
8095;DHT22;4090;49.270;8.696;2022-09-09T16:11:31;21.90;99.90
8095;DHT22;4090;49.270;8.696;2022-09-09T16:14:14;21.90;99.90
8095;DHT22;4090;49.270;8.696;2022-09-09T16:16:56;21.90;99.90
8095;DHT22;4090;49.270;8.696;2022-09-09T16:19:38;22.00;99.90
8095;DHT22;4090;49.270;8.696;2022-09-09T16:22:21;22.00;99.90
8095;DHT22;4090;49.270;8.696;2022-09-09T16:25:04;22.00;99.90
8095;DHT22;4090;49.270;8.696;2022-09-09T16:27:46;22.00;99.90
8095;DHT22;4090;49.270;8.696;2022-09-09T16:30:28;21.90;99.90
8095;DHT22;4090;49.270;8.696;2022-09-09T16:33:10;21.90;99.90
8095;DHT22;4090;49.270;8.696;2022-09-09T16:35:54;21.90;99.90
8095;DHT22;4090;49.270;8.696;2022-09-09T16:38:38;21.90;99.90
8095;DHT22;4090;49.270;8.696;2022-09-09T16:41:20;21.90;99.90
8095;DHT22;4090;49.270;8.696;2022-09-09T16:44:03;21.90;99.90
8095;DHT22;4090;49.270;8.696;2022-09-09T16:46:47;21.80;99.90
8095;DHT22;4090;49.270;8.696;2022-09-09T16:49:32;21.70;99.90
8095;DHT22;4090;49.270;8.696;2022-09-09T16:52:14;21.70;99.90
8095;DHT22;4090;49.270;8.696;2022-09-09T16:54:57;21.60;99.90
8095;DHT22;4090;49.270;8.696;2022-09-09T16:57:39;21.50;99.90
8095;DHT22;4090;49.270;8.696;2022-09-09T17:00:22;21.40;99.90
8095;DHT22;4090;49.270;8.696;2022-09-09T17:03:04;21.40;99.90
8095;DHT22;4090;49.270;8.696;2022-09-09T17:05:46;21.40;99.90
8095;DHT22;4090;49.270;8.696;2022-09-09T17:08:29;21.40;99.90
8095;DHT22;4090;49.270;8.696;2022-09-09T17:11:13;21.40;99.90
8095;DHT22;4090;49.270;8.696;2022-09-09T17:13:56;21.30;99.90
8095;DHT22;4090;49.270;8.696;2022-09-09T17:16:38;21.20;99.90
8095;DHT22;4090;49.270;8.696;2022-09-09T17:19:21;21.10;99.90
8095;DHT22;4090;49.270;8.696;2022-09-09T17:22:02;21.00;99.90
8095;DHT22;4090;49.270;8.696;2022-09-09T17:24:44;20.90;99.90
8095;DHT22;4090;49.270;8.696;2022-09-09T17:27:27;20.80;99.90
8095;DHT22;4090;49.270;8.696;2022-09-09T17:30:12;20.60;99.90
8095;DHT22;4090;49.270;8.696;2022-09-09T17:32:54;20.50;99.90
8095;DHT22;4090;49.270;8.696;2022-09-09T17:35:36;20.40;99.90
8095;DHT22;4090;49.270;8.696;2022-09-09T17:38:17;20.40;99.90
8095;DHT22;4090;49.270;8.696;2022-09-09T17:41:04;20.30;99.90
8095;DHT22;4090;49.270;8.696;2022-09-09T17:43:48;20.20;99.90
8095;DHT22;4090;49.270;8.696;2022-09-09T17:46:31;20.20;99.90
8095;DHT22;4090;49.270;8.696;2022-09-09T17:49:16;20.10;99.90
8095;DHT22;4090;49.270;8.696;2022-09-09T17:51:59;20.10;99.90
8095;DHT22;4090;49.270;8.696;2022-09-09T17:54:40;20.10;99.90
8095;DHT22;4090;49.270;8.696;2022-09-09T17:57:22;20.00;99.90
8095;DHT22;4090;49.270;8.696;2022-09-09T18:00:07;19.90;99.90
8095;DHT22;4090;49.270;8.696;2022-09-09T18:02:53;19.90;99.90
8095;DHT22;4090;49.270;8.696;2022-09-09T18:05:34;19.90;99.90
8095;DHT22;4090;49.270;8.696;2022-09-09T18:08:18;19.80;99.90
8095;DHT22;4090;49.270;8.696;2022-09-09T18:11:00;19.80;99.90
8095;DHT22;4090;49.270;8.696;2022-09-09T18:13:42;19.70;99.90